Terminal Aerodrome Forecast
Issued by NWS Burlington, VT

Home | Current Version | Previous Version | Text Only | Print | Product List | Glossary On
Versions: 1 2 3 4 5 6 7 8 9 10 11 12 13 14 15 16 17 18 19 20
000
FTUS41 KBTV 281120
TAFBTV
TAF
KBTV 281120Z 2812/2912 35012KT P6SM VCSH SCT015 OVC045
      TEMPO 2812/2814 5SM -SHSN BLSN BKN020
     FM281800 35009G18KT P6SM FEW030 SCT250
     FM290300 VRB04KT P6SM FEW250=

USA.gov is the U.S. government's official web portal to all federal, state and local government web resources and services.